createdAt,value
2023-05-04T00:06:43.356Z,7.10
2023-05-04T00:11:36.832Z,7.87
2023-05-04T00:16:30.273Z,9.23
2023-05-04T00:21:23.708Z,7.80
2023-05-04T00:26:18.390Z,7.77
2023-05-04T00:36:14.973Z,11.50
2023-05-04T00:41:09.428Z,8.63
2023-05-04T01:33:11.196Z,7.53
2023-05-04T01:38:05.534Z,7.60
2023-05-04T01:42:58.814Z,8.87
2023-05-04T01:47:53.261Z,7.00
2023-05-04T01:52:47.902Z,7.30
2023-05-04T01:57:43.189Z,8.20
2023-05-04T02:02:36.552Z,7.93
2023-05-04T02:07:29.936Z,7.90
2023-05-04T03:13:48.124Z,9.80
2023-05-04T03:23:52.508Z,9.37
2023-05-04T03:28:48.538Z,11.50
2023-05-04T04:35:08.760Z,10.70
2023-05-04T04:40:02.543Z,20.50
2023-05-04T04:44:56.100Z,11.70
2023-05-04T04:49:49.416Z,9.27
2023-05-04T04:59:51.192Z,8.97
2023-05-04T05:30:33.984Z,9.67
2023-05-04T05:35:27.447Z,10.17
2023-05-04T05:40:22.415Z,9.70
2023-05-04T05:45:15.831Z,10.43
2023-05-04T05:50:12.438Z,11.07
2023-05-04T05:55:06.678Z,10.43
2023-05-04T05:59:59.978Z,12.07
2023-05-04T06:04:53.318Z,12.20
2023-05-04T06:09:48.027Z,13.03
2023-05-04T06:14:41.604Z,13.20
2023-05-04T06:19:36.568Z,15.10
2023-05-04T06:24:30.728Z,14.40
2023-05-04T06:29:25.906Z,15.87
2023-05-04T06:34:19.561Z,15.73
2023-05-04T06:39:12.899Z,18.93
2023-05-04T06:44:06.772Z,14.80
2023-05-04T06:49:01.742Z,14.40
2023-05-04T06:53:55.067Z,14.27
2023-05-04T06:58:48.856Z,15.70
2023-05-04T07:03:42.845Z,15.57
2023-05-04T07:08:37.640Z,14.10
2023-05-04T07:13:31.014Z,13.63
2023-05-04T07:18:24.621Z,14.53
2023-05-04T07:23:17.973Z,13.83
2023-05-04T07:28:12.770Z,14.13
2023-05-04T07:33:06.284Z,14.97
2023-05-04T07:37:59.588Z,13.40
2023-05-04T07:42:52.864Z,13.97
2023-05-04T07:47:47.564Z,12.50
2023-05-04T07:52:40.866Z,13.07
2023-05-04T07:57:35.831Z,13.10
2023-05-04T08:02:29.309Z,14.00
2023-05-04T08:07:24.024Z,11.80
2023-05-04T08:17:24.574Z,11.03
2023-05-04T08:22:18.029Z,13.27
2023-05-04T08:27:14.723Z,11.60
2023-05-04T08:37:08.548Z,10.30
2023-05-04T08:42:02.262Z,9.70
2023-05-04T08:46:58.261Z,9.80
2023-05-04T08:51:52.474Z,9.55
2023-05-04T08:56:47.476Z,9.23
2023-05-04T09:01:41.117Z,8.38
2023-05-04T09:06:36.077Z,7.68
2023-05-04T09:11:29.637Z,8.25
2023-05-04T09:21:34.640Z,7.90
2023-05-04T09:26:29.441Z,7.20
2023-05-04T09:31:24.957Z,8.63
2023-05-04T09:36:22.062Z,7.72
2023-05-04T09:41:18.401Z,6.70
2023-05-04T09:46:18.768Z,6.32
2023-05-04T09:51:16.104Z,5.30
2023-05-04T09:56:19.907Z,4.90
2023-05-04T10:01:13.441Z,5.10
2023-05-04T10:06:09.047Z,5.68
2023-05-04T10:11:03.885Z,5.70
2023-05-04T10:16:15.270Z,6.22
2023-05-04T10:21:30.324Z,6.88
2023-05-04T10:26:59.554Z,6.45
2023-05-04T10:31:53.780Z,6.80
2023-05-04T10:36:48.762Z,6.88
2023-05-04T10:41:43.421Z,6.15
2023-05-04T10:46:36.893Z,6.00
2023-05-04T10:51:42.384Z,5.18
2023-05-04T10:56:43.533Z,5.13
2023-05-04T11:01:44.803Z,5.72
2023-05-04T11:06:38.536Z,5.75
2023-05-04T11:11:37.633Z,6.32
2023-05-04T11:16:32.361Z,7.35
2023-05-04T11:26:32.457Z,5.53
2023-05-04T11:36:43.549Z,4.97
2023-05-04T11:41:37.847Z,3.80
2023-05-04T11:46:34.446Z,3.75
2023-05-04T11:51:30.012Z,4.03
2023-05-04T11:56:24.730Z,3.88
2023-05-04T12:01:18.099Z,4.22
2023-05-04T12:06:11.634Z,4.10
2023-05-04T12:11:14.933Z,3.88
2023-05-04T12:16:15.391Z,3.90
2023-05-04T12:21:13.667Z,3.30
2023-05-04T12:26:07.688Z,4.25
2023-05-04T12:31:01.029Z,3.85
2023-05-04T12:35:55.812Z,3.70
2023-05-04T12:40:49.273Z,3.83
2023-05-04T12:45:42.543Z,4.05
2023-05-04T12:50:35.891Z,3.38
2023-05-04T12:55:31.272Z,3.83
2023-05-04T13:00:24.830Z,3.58
2023-05-04T13:05:18.578Z,3.50
2023-05-04T13:10:12.511Z,3.20
2023-05-04T13:15:08.769Z,4.97
2023-05-04T13:20:05.970Z,3.00
2023-05-04T13:30:09.206Z,3.65
2023-05-04T13:35:02.501Z,3.67
2023-05-04T13:39:56.410Z,5.28
2023-05-04T13:44:49.773Z,3.42
2023-05-04T13:49:44.521Z,3.55
2023-05-04T13:54:38.812Z,4.38
2023-05-04T13:59:32.257Z,3.45
2023-05-04T14:04:25.771Z,3.00
2023-05-04T14:09:21.094Z,3.30
2023-05-04T14:14:14.396Z,3.17
2023-05-04T14:19:07.737Z,4.50
2023-05-04T14:24:01.028Z,2.90
2023-05-04T14:28:55.698Z,3.08
2023-05-04T14:33:49.100Z,3.67
2023-05-04T14:38:42.902Z,2.75
2023-05-04T14:43:36.147Z,3.10
2023-05-04T14:48:30.791Z,2.97
2023-05-04T14:53:25.027Z,3.25
2023-05-04T14:58:18.852Z,3.42
2023-05-04T15:03:12.496Z,4.07
2023-05-04T15:08:07.522Z,6.30
2023-05-04T15:13:03.265Z,3.45
2023-05-04T15:17:56.700Z,3.20
2023-05-04T15:22:53.729Z,3.70
2023-05-04T15:27:48.737Z,3.50
2023-05-04T15:32:42.051Z,3.50
2023-05-04T15:37:35.657Z,3.92
2023-05-04T15:42:28.970Z,3.67
2023-05-04T15:47:23.927Z,3.88
2023-05-04T15:52:17.292Z,4.13
2023-05-04T15:57:10.591Z,4.30
2023-05-04T16:02:05.985Z,4.55
2023-05-04T16:07:00.729Z,4.55
2023-05-04T16:11:54.296Z,4.38
2023-05-04T16:16:47.650Z,4.13
2023-05-04T16:21:41.026Z,5.13
2023-05-04T16:26:35.717Z,4.50
2023-05-04T16:31:29.139Z,4.85
2023-05-04T16:36:22.524Z,3.95
2023-05-04T16:41:15.937Z,4.32
2023-05-04T16:46:10.953Z,4.40
2023-05-04T16:51:06.165Z,5.15
2023-05-04T16:55:59.491Z,4.00
2023-05-04T17:00:52.810Z,3.80
2023-05-04T17:05:48.254Z,3.72
2023-05-04T17:10:41.864Z,3.90
2023-05-04T17:15:35.172Z,4.60
2023-05-04T17:20:31.950Z,4.75
2023-05-04T17:25:27.450Z,4.53
2023-05-04T17:30:20.769Z,4.55
2023-05-04T17:35:24.590Z,4.50
2023-05-04T17:40:19.609Z,4.25
2023-05-04T17:45:14.605Z,4.40
2023-05-04T17:50:09.097Z,5.60
2023-05-04T17:55:05.143Z,4.60
2023-05-04T18:00:02.262Z,4.30
2023-05-04T18:05:01.938Z,4.40
2023-05-04T18:09:56.105Z,4.88
2023-05-04T18:14:50.143Z,4.95
2023-05-04T18:19:46.527Z,5.97
2023-05-04T18:24:41.323Z,6.65
2023-05-04T18:29:34.584Z,5.00
2023-05-04T18:34:27.980Z,4.80
2023-05-04T18:39:21.477Z,6.05
2023-05-04T18:44:16.311Z,5.22
2023-05-04T18:49:09.891Z,6.07
2023-05-04T18:54:03.327Z,6.72
2023-05-04T18:58:56.626Z,7.05
2023-05-04T19:03:51.401Z,9.48
2023-05-04T19:08:44.709Z,12.65
2023-05-04T19:13:38.037Z,10.07
2023-05-04T19:18:31.387Z,10.95
2023-05-04T19:23:26.119Z,13.23
2023-05-04T19:28:27.929Z,13.31
2023-05-04T19:33:21.688Z,9.52
2023-05-04T19:38:16.084Z,9.57
2023-05-04T19:43:10.793Z,11.90
2023-05-04T19:48:05.600Z,13.35
2023-05-04T19:52:58.929Z,12.38
2023-05-04T19:57:52.389Z,12.65
2023-05-04T20:02:47.771Z,12.20
2023-05-04T20:07:41.304Z,14.90
2023-05-04T20:12:37.562Z,11.63
2023-05-04T20:17:31.040Z,13.27
2023-05-04T20:22:25.805Z,11.82
2023-05-04T20:27:19.138Z,10.73
2023-05-04T20:32:12.520Z,10.45
2023-05-04T20:37:06.859Z,12.35
2023-05-04T20:42:01.911Z,10.93
2023-05-04T20:46:55.415Z,11.90
2023-05-04T20:51:48.711Z,13.40
2023-05-04T20:56:42.095Z,12.30
2023-05-04T21:01:36.878Z,13.23
2023-05-04T21:06:30.196Z,14.20
2023-05-04T21:11:23.658Z,13.18
2023-05-04T21:16:16.996Z,14.43
2023-05-04T21:21:11.835Z,15.00
2023-05-04T21:26:06.241Z,13.98
2023-05-04T21:30:59.968Z,13.55
2023-05-04T21:35:53.356Z,14.45
2023-05-04T21:40:48.031Z,15.23
2023-05-04T21:45:41.299Z,13.80
2023-05-04T21:50:34.618Z,16.50
2023-05-04T21:55:30.397Z,14.00
2023-05-04T22:00:25.664Z,13.07
2023-05-04T22:05:22.163Z,13.10
2023-05-04T22:10:15.529Z,15.20
2023-05-04T22:15:11.402Z,16.17
2023-05-04T22:20:08.186Z,12.95
2023-05-04T22:25:01.695Z,10.55
2023-05-04T22:29:55.018Z,9.93
2023-05-04T22:34:48.424Z,9.65
2023-05-04T22:39:43.184Z,9.70
2023-05-04T22:44:36.578Z,9.70
2023-05-04T22:49:29.856Z,9.88
2023-05-04T22:54:23.201Z,9.60
2023-05-04T22:59:17.917Z,9.48
2023-05-04T23:04:11.641Z,10.00
2023-05-04T23:09:05.384Z,11.52
2023-05-04T23:13:58.675Z,10.38
2023-05-04T23:18:53.363Z,9.55
2023-05-04T23:23:46.755Z,9.70
2023-05-04T23:28:40.052Z,11.32
2023-05-04T23:33:33.354Z,9.40
2023-05-04T23:38:28.145Z,9.68
2023-05-04T23:43:22.926Z,9.48
2023-05-04T23:48:16.210Z,10.30
2023-05-04T23:53:09.518Z,9.73
2023-05-04T23:58:04.885Z,9.30
